Time;durP1;ratioP1;P1;durP2;ratioP2;P2;SDS_P1;SDS_P2;PMS_P1;PMS_P2;Temp;Humidity;BMP_temperature;BMP_pressure;BME280_temperature;BME280_humidity;BME280_pressure;Samples;Min_cycle;Max_cycle;Signal;HPM_P1;HPM_P2
2022/04/17 19:25:57;;;;;;;2.55;1.55;;;;;;;;;;537372;23;1669;-85
2022/04/17 19:26:13;;;;;;;3.15;1.60;;;;;;;;;;517687;28;1454;-84
2022/04/17 19:26:29;;;;;;;2.95;1.50;;;;;;;;;;517380;28;1796;-84
2022/04/17 19:26:44;;;;;;;2.40;1.52;;;;;;;;;;515699;28;1841;-84
2022/04/17 19:27:00;;;;;;;2.73;1.70;;;;;;;;;;515956;28;1456;-85
2022/04/17 19:27:16;;;;;;;3.60;1.63;;;;;;;;;;514131;28;1432;-86
2022/04/17 19:27:33;;;;;;;3.40;1.63;;;;;;;;;;512984;28;1390;-84
2022/04/17 19:27:48;;;;;;;2.72;1.73;;;;;;;;;;513427;28;1372;-86
2022/04/17 19:28:04;;;;;;;2.90;1.70;;;;;;;;;;512688;28;1604;-85
2022/04/17 19:28:19;;;;;;;3.28;1.70;;;;;;;;;;513377;28;1740;-85
2022/04/17 19:28:35;;;;;;;3.23;1.80;;;;;;;;;;513435;28;1532;-84
2022/04/17 19:28:52;;;;;;;3.17;1.60;;;;;;;;;;515189;28;1381;-85
2022/04/17 19:29:08;;;;;;;3.25;1.50;;;;;;;;;;513804;28;1382;-85
2022/04/17 19:29:23;;;;;;;2.50;1.60;;;;;;;;;;513840;28;1528;-85
2022/04/17 19:29:38;;;;;;;2.70;1.60;;;;;;;;;;513157;28;1456;-84
2022/04/17 19:29:55;;;;;;;2.58;1.60;;;;;;;;;;512785;28;1477;-86
2022/04/17 19:30:12;;;;;;;2.22;1.60;;;;;;;;;;513038;28;1413;-84
2022/04/17 19:30:27;;;;;;;2.72;1.60;;;;;;;;;;510775;28;1429;-85
2022/04/17 19:35:14;;;;;;;3.40;1.60;;;;;;;;;;510773;29;1520;-84
2022/04/17 19:35:19;;;;;;;2.15;1.42;;;;;;;;;;518812;28;1455;-85
2022/04/17 19:35:35;;;;;;;3.50;1.50;;;;;;;;;;518257;28;1560;-84
2022/04/17 19:35:50;;;;;;;3.10;1.43;;;;;;;;;;519319;28;1560;-85
2022/04/17 19:36:06;;;;;;;2.20;1.40;;;;;;;;;;518545;28;1584;-86
2022/04/17 19:36:22;;;;;;;2.63;1.40;;;;;;;;;;517855;28;1376;-84
2022/04/17 19:36:37;;;;;;;3.07;1.50;;;;;;;;;;516669;28;1697;-86
2022/04/17 19:36:54;;;;;;;3.20;1.60;;;;;;;;;;517094;28;1549;-84
2022/04/17 19:37:12;;;;;;;2.72;1.30;;;;;;;;;;516945;28;1512;-84
2022/04/17 19:37:28;;;;;;;2.67;1.40;;;;;;;;;;514655;28;1510;-85
2022/04/17 19:37:48;;;;;;;3.22;1.50;;;;;;;;;;516479;28;1667;-84
2022/04/17 19:38:04;;;;;;;2.80;1.33;;;;;;;;;;516494;28;1486;-84
2022/04/17 19:38:20;;;;;;;2.00;1.37;;;;;;;;;;515170;28;1424;-84
2022/04/17 19:38:35;;;;;;;2.70;1.55;;;;;;;;;;516267;28;1577;-84
2022/04/17 19:38:50;;;;;;;2.93;1.50;;;;;;;;;;514373;28;1452;-86
2022/04/17 19:39:06;;;;;;;2.95;1.60;;;;;;;;;;514315;28;1420;-85
2022/04/17 19:39:21;;;;;;;2.87;1.70;;;;;;;;;;515670;28;1369;-85
2022/04/17 19:39:37;;;;;;;2.78;1.52;;;;;;;;;;516338;28;1724;-85
2022/04/17 19:39:54;;;;;;;2.83;1.50;;;;;;;;;;516490;28;1546;-84
2022/04/17 19:40:11;;;;;;;3.42;1.80;;;;;;;;;;516269;28;1491;-85
2022/04/17 19:40:26;;;;;;;3.95;1.80;;;;;;;;;;517117;28;1616;-86
2022/04/17 19:40:43;;;;;;;3.60;1.60;;;;;;;;;;518680;28;1656;-85
2022/04/17 19:40:59;;;;;;;3.20;1.67;;;;;;;;;;518612;28;1535;-83
2022/04/17 19:41:15;;;;;;;2.70;1.70;;;;;;;;;;519004;28;1969;-85
2022/04/17 19:41:31;;;;;;;3.20;1.73;;;;;;;;;;519043;28;1596;-85
2022/04/17 19:41:47;;;;;;;3.40;1.80;;;;;;;;;;518583;28;1548;-85
2022/04/17 19:42:05;;;;;;;3.13;1.80;;;;;;;;;;516701;28;1506;-84
2022/04/17 19:42:21;;;;;;;2.58;1.77;;;;;;;;;;516713;28;1406;-84
2022/04/17 19:42:37;;;;;;;2.55;1.70;;;;;;;;;;516606;28;1773;-84
2022/04/17 19:42:52;;;;;;;2.58;1.67;;;;;;;;;;515986;28;1511;-85
2022/04/17 19:43:08;;;;;;;2.75;1.60;;;;;;;;;;514788;28;1626;-84
2022/04/17 19:43:23;;;;;;;2.43;1.73;;;;;;;;;;515317;28;1582;-86
2022/04/17 19:43:38;;;;;;;2.33;1.70;;;;;;;;;;516661;28;1483;-85
2022/04/17 19:43:54;;;;;;;2.95;1.77;;;;;;;;;;515531;28;1460;-84
2022/04/17 19:44:10;;;;;;;3.00;1.90;;;;;;;;;;517842;28;1744;-84
2022/04/17 19:44:26;;;;;;;2.92;1.90;;;;;;;;;;516359;28;1444;-84
2022/04/17 19:44:41;;;;;;;2.70;1.75;;;;;;;;;;516782;28;1449;-84
2022/04/17 19:44:56;;;;;;;2.53;1.70;;;;;;;;;;516488;28;1506;-85
2022/04/17 19:45:15;;;;;;;3.40;1.90;;;;;;;;;;516431;28;1522;-83
2022/04/17 19:45:30;;;;;;;3.13;1.85;;;;;;;;;;514273;28;1482;-84
2022/04/17 19:45:46;;;;;;;2.78;1.88;;;;;;;;;;514501;28;1433;-86
2022/04/17 19:46:02;;;;;;;3.27;2.00;;;;;;;;;;514709;28;1446;-84
2022/04/17 19:46:20;;;;;;;3.20;2.13;;;;;;;;;;512449;28;1538;-84
2022/04/17 19:46:36;;;;;;;2.97;2.03;;;;;;;;;;512548;28;1618;-84
2022/04/17 19:46:51;;;;;;;2.90;1.80;;;;;;;;;;512580;28;1505;-87
2022/04/17 19:47:07;;;;;;;3.05;1.98;;;;;;;;;;514176;28;1617;-84
2022/04/17 19:47:22;;;;;;;3.47;2.20;;;;;;;;;;514091;28;1420;-85
2022/04/17 19:47:38;;;;;;;3.92;2.08;;;;;;;;;;513854;28;1469;-84
2022/04/17 19:47:55;;;;;;;3.00;2.00;;;;;;;;;;515664;28;1435;-84
2022/04/17 19:48:10;;;;;;;3.22;2.10;;;;;;;;;;516274;28;1412;-86
2022/04/17 19:48:25;;;;;;;3.47;2.20;;;;;;;;;;513970;28;1460;-84
2022/04/17 19:48:41;;;;;;;3.67;2.33;;;;;;;;;;513983;28;1447;-84
2022/04/17 19:48:56;;;;;;;5.60;2.53;;;;;;;;;;514362;28;1646;-84
2022/04/17 19:49:12;;;;;;;6.10;2.60;;;;;;;;;;514300;28;1424;-85
2022/04/17 19:49:27;;;;;;;4.45;2.40;;;;;;;;;;514349;28;1456;-84
2022/04/17 19:49:45;;;;;;;4.68;2.40;;;;;;;;;;515977;28;1475;-86
2022/04/17 19:50:01;;;;;;;4.70;2.38;;;;;;;;;;514695;28;1456;-84
2022/04/17 19:50:18;;;;;;;3.25;2.20;;;;;;;;;;518461;28;1739;-85
2022/04/17 19:50:33;;;;;;;3.63;2.25;;;;;;;;;;516298;28;1625;-84
2022/04/17 19:50:48;;;;;;;3.90;2.30;;;;;;;;;;513229;28;1549;-84
2022/04/17 19:51:04;;;;;;;2.97;2.22;;;;;;;;;;513057;28;1507;-84
2022/04/17 19:51:19;;;;;;;3.27;2.30;;;;;;;;;;512964;28;1943;-84
2022/04/17 19:51:34;;;;;;;4.43;2.40;;;;;;;;;;513393;28;1748;-85
2022/04/17 19:51:50;;;;;;;3.97;2.20;;;;;;;;;;512941;28;1357;-84
2022/04/17 19:52:06;;;;;;;3.13;2.30;;;;;;;;;;512912;28;1453;-85
2022/04/17 19:52:22;;;;;;;3.53;2.50;;;;;;;;;;512347;28;1434;-85
2022/04/17 19:52:37;;;;;;;3.63;2.50;;;;;;;;;;513794;28;1536;-86
2022/04/17 19:52:53;;;;;;;3.55;2.42;;;;;;;;;;510908;28;1529;-84
2022/04/17 19:53:08;;;;;;;4.20;2.40;;;;;;;;;;510445;29;1623;-84
2022/04/17 19:53:24;;;;;;;4.20;2.40;;;;;;;;;;510808;28;1545;-84
2022/04/17 19:53:40;;;;;;;4.03;2.40;;;;;;;;;;511364;28;1582;-84
2022/04/17 19:53:56;;;;;;;4.53;2.60;;;;;;;;;;513585;28;1488;-85
2022/04/17 19:54:11;;;;;;;4.83;2.60;;;;;;;;;;512692;28;1536;-85
2022/04/17 19:54:27;;;;;;;4.22;2.40;;;;;;;;;;512743;28;2042;-85
2022/04/17 19:54:42;;;;;;;3.57;2.30;;;;;;;;;;513190;28;1905;-84
2022/04/17 19:54:58;;;;;;;3.70;2.30;;;;;;;;;;514953;28;1460;-85
2022/04/17 19:55:13;;;;;;;3.42;2.30;;;;;;;;;;514682;28;1718;-84
2022/04/17 19:55:28;;;;;;;3.80;2.50;;;;;;;;;;515339;28;1353;-86
2022/04/17 19:55:44;;;;;;;4.75;2.70;;;;;;;;;;514331;28;1540;-85
2022/04/17 19:56:01;;;;;;;4.53;2.60;;;;;;;;;;515215;28;1476;-85
2022/04/17 19:56:16;;;;;;;4.20;2.83;;;;;;;;;;516862;28;1454;-87
2022/04/17 19:56:32;;;;;;;4.10;2.95;;;;;;;;;;518689;28;1483;-84
2022/04/17 19:56:48;;;;;;;4.57;2.90;;;;;;;;;;518804;28;1437;-84
2022/04/17 19:57:04;;;;;;;4.88;3.00;;;;;;;;;;519171;28;1514;-85
2022/04/17 19:57:19;;;;;;;4.30;2.88;;;;;;;;;;519137;28;1561;-86
2022/04/17 19:57:35;;;;;;;3.93;2.80;;;;;;;;;;516764;28;1562;-84
2022/04/17 19:57:50;;;;;;;4.57;3.00;;;;;;;;;;518358;28;1450;-85
2022/04/17 19:58:06;;;;;;;5.38;2.90;;;;;;;;;;518887;28;1502;-86
2022/04/17 19:58:21;;;;;;;5.87;3.03;;;;;;;;;;518401;28;1739;-85
2022/04/17 19:58:37;;;;;;;5.93;3.27;;;;;;;;;;517143;28;1460;-87
2022/04/17 19:58:52;;;;;;;4.80;3.17;;;;;;;;;;518494;28;1621;-83
2022/04/17 19:59:07;;;;;;;5.13;2.97;;;;;;;;;;516757;28;1519;-84
2022/04/17 19:59:23;;;;;;;5.78;2.88;;;;;;;;;;516805;28;1747;-84
2022/04/17 19:59:38;;;;;;;4.80;3.07;;;;;;;;;;517108;28;1432;-84
2022/04/17 19:59:55;;;;;;;4.47;3.20;;;;;;;;;;518604;28;1723;-85
2022/04/17 20:00:10;;;;;;;4.25;3.00;;;;;;;;;;518628;28;1478;-86
2022/04/17 20:00:26;;;;;;;5.00;3.10;;;;;;;;;;518869;28;1534;-85
2022/04/17 20:00:42;;;;;;;5.43;3.25;;;;;;;;;;518291;28;1479;-86
2022/04/17 20:00:57;;;;;;;4.90;3.20;;;;;;;;;;517243;28;1403;-86
2022/04/17 20:01:13;;;;;;;4.83;3.13;;;;;;;;;;516624;28;1910;-84
2022/04/17 20:01:28;;;;;;;4.97;3.00;;;;;;;;;;516412;28;1411;-84
2022/04/17 20:01:44;;;;;;;5.10;3.10;;;;;;;;;;516291;28;1558;-84
2022/04/17 20:02:00;;;;;;;5.27;3.23;;;;;;;;;;516877;28;1507;-85
2022/04/17 20:02:15;;;;;;;4.97;3.30;;;;;;;;;;516653;28;1420;-84
2022/04/17 20:02:31;;;;;;;5.18;3.20;;;;;;;;;;517344;28;1443;-84
2022/04/17 20:02:46;;;;;;;6.20;3.20;;;;;;;;;;518185;28;1447;-85
2022/04/17 20:03:01;;;;;;;5.97;3.20;;;;;;;;;;519387;28;1503;-86
2022/04/17 20:03:17;;;;;;;4.72;3.20;;;;;;;;;;517385;28;1613;-84
2022/04/17 20:03:33;;;;;;;4.40;3.10;;;;;;;;;;517075;28;1507;-85
2022/04/17 20:03:48;;;;;;;4.60;3.20;;;;;;;;;;516501;28;1651;-85
2022/04/17 20:04:05;;;;;;;5.28;3.40;;;;;;;;;;515498;28;1583;-84
2022/04/17 20:04:20;;;;;;;4.82;3.30;;;;;;;;;;516789;28;1455;-85
2022/04/17 20:04:36;;;;;;;4.45;3.20;;;;;;;;;;514119;28;1611;-86
2022/04/17 20:04:52;;;;;;;4.67;3.40;;;;;;;;;;513918;28;1547;-84
2022/04/17 20:05:07;;;;;;;5.50;3.50;;;;;;;;;;514921;28;1504;-84
2022/04/17 20:05:23;;;;;;;5.22;3.40;;;;;;;;;;516934;28;1452;-84
2022/04/17 20:05:38;;;;;;;4.13;3.23;;;;;;;;;;516252;28;1530;-86
2022/04/17 20:05:54;;;;;;;5.00;3.42;;;;;;;;;;516825;28;1408;-87
2022/04/17 20:06:09;;;;;;;5.33;3.60;;;;;;;;;;517028;28;1499;-84
2022/04/17 20:06:25;;;;;;;5.30;3.72;;;;;;;;;;514667;28;1487;-84
2022/04/17 20:06:41;;;;;;;4.80;3.72;;;;;;;;;;514322;28;1656;-83
2022/04/17 20:06:56;;;;;;;4.47;3.40;;;;;;;;;;515202;28;1436;-83
2022/04/17 20:07:14;;;;;;;4.75;3.40;;;;;;;;;;516193;28;1691;-85
2022/04/17 20:07:29;;;;;;;4.57;3.65;;;;;;;;;;512390;28;1672;-88
2022/04/17 20:07:45;;;;;;;5.75;3.60;;;;;;;;;;513333;28;1476;-84
2022/04/17 20:08:00;;;;;;;6.30;3.70;;;;;;;;;;514543;28;1489;-86
2022/04/17 20:08:16;;;;;;;5.60;3.75;;;;;;;;;;515309;28;1382;-87
2022/04/17 20:08:31;;;;;;;4.93;3.60;;;;;;;;;;514364;28;1673;-86
2022/04/17 20:08:47;;;;;;;4.45;3.55;;;;;;;;;;514789;28;1353;-84
2022/04/17 20:09:03;;;;;;;5.40;3.80;;;;;;;;;;512345;28;1598;-83
2022/04/17 20:09:18;;;;;;;5.43;3.70;;;;;;;;;;514595;28;1656;-85
2022/04/17 20:09:34;;;;;;;5.80;3.47;;;;;;;;;;514445;28;1499;-83
2022/04/17 20:09:49;;;;;;;6.53;3.70;;;;;;;;;;515513;28;1373;-86
2022/04/17 20:10:05;;;;;;;6.30;3.92;;;;;;;;;;515252;28;1611;-84
2022/04/17 20:10:23;;;;;;;5.22;3.67;;;;;;;;;;514416;28;1488;-85
2022/04/17 20:10:40;;;;;;;4.13;3.40;;;;;;;;;;515484;28;1435;-85
2022/04/17 20:10:56;;;;;;;4.63;3.60;;;;;;;;;;515554;28;1472;-86
2022/04/17 20:11:11;;;;;;;5.40;3.80;;;;;;;;;;514856;28;1583;-84
2022/04/17 20:11:27;;;;;;;4.67;3.80;;;;;;;;;;515883;28;1420;-84
2022/04/17 20:11:43;;;;;;;4.28;3.70;;;;;;;;;;516338;28;1605;-84
2022/04/17 20:11:58;;;;;;;4.40;3.77;;;;;;;;;;516835;28;1561;-84
2022/04/17 20:12:13;;;;;;;4.90;3.70;;;;;;;;;;517334;28;1577;-84
2022/04/17 20:12:29;;;;;;;6.30;3.70;;;;;;;;;;519295;28;1479;-84
2022/04/17 20:12:45;;;;;;;6.20;3.65;;;;;;;;;;517043;28;1500;-85
2022/04/17 20:13:01;;;;;;;4.93;3.60;;;;;;;;;;516650;28;1412;-86
2022/04/17 20:13:17;;;;;;;5.47;3.85;;;;;;;;;;516502;28;1997;-84
2022/04/17 20:13:32;;;;;;;5.90;3.90;;;;;;;;;;516806;28;1402;-86
2022/04/17 20:13:48;;;;;;;5.28;3.67;;;;;;;;;;518656;28;1780;-85
2022/04/17 20:14:04;;;;;;;5.40;3.63;;;;;;;;;;516591;28;1459;-84
2022/04/17 20:14:20;;;;;;;5.77;3.77;;;;;;;;;;516639;28;1673;-84
2022/04/17 20:14:36;;;;;;;5.53;3.80;;;;;;;;;;516609;28;1684;-83
2022/04/17 20:14:51;;;;;;;5.27;3.60;;;;;;;;;;516292;28;1571;-84
2022/04/17 20:15:07;;;;;;;4.63;3.50;;;;;;;;;;516199;28;1527;-84
2022/04/17 20:15:23;;;;;;;4.40;3.35;;;;;;;;;;516515;28;1463;-85
2022/04/17 20:15:39;;;;;;;4.78;3.40;;;;;;;;;;514284;28;1622;-86
2022/04/17 20:15:55;;;;;;;5.00;3.50;;;;;;;;;;514778;28;1659;-85
2022/04/17 20:16:10;;;;;;;4.90;3.50;;;;;;;;;;515224;28;1616;-84
2022/04/17 20:16:26;;;;;;;4.93;3.53;;;;;;;;;;514655;28;1527;-84
2022/04/17 20:16:42;;;;;;;4.70;3.45;;;;;;;;;;513931;28;1365;-85
2022/04/17 20:16:57;;;;;;;4.57;3.33;;;;;;;;;;512738;28;1462;-85
2022/04/17 20:17:13;;;;;;;5.22;3.30;;;;;;;;;;512624;28;1416;-84
2022/04/17 20:17:28;;;;;;;5.10;3.37;;;;;;;;;;512330;28;1487;-84
2022/04/17 20:17:43;;;;;;;4.13;3.28;;;;;;;;;;513156;28;1433;-84
2022/04/17 20:17:59;;;;;;;4.30;3.40;;;;;;;;;;512867;28;1486;-84
2022/04/17 20:18:15;;;;;;;4.97;3.57;;;;;;;;;;513044;28;1857;-84
2022/04/17 20:18:30;;;;;;;5.45;3.50;;;;;;;;;;514811;28;1535;-84
2022/04/17 20:18:46;;;;;;;4.73;3.30;;;;;;;;;;514953;28;1441;-85
2022/04/17 20:19:03;;;;;;;5.15;3.28;;;;;;;;;;515226;28;1661;-85
2022/04/17 20:19:18;;;;;;;5.30;3.30;;;;;;;;;;514614;28;1726;-84
2022/04/17 20:19:34;;;;;;;4.65;3.22;;;;;;;;;;514416;28;1582;-84
2022/04/17 20:19:49;;;;;;;4.83;3.33;;;;;;;;;;515032;28;1421;-84
2022/04/17 20:20:05;;;;;;;4.70;3.17;;;;;;;;;;515248;28;1868;-84
2022/04/17 20:20:22;;;;;;;4.88;3.10;;;;;;;;;;516465;28;1452;-86
2022/04/17 20:20:37;;;;;;;4.63;3.30;;;;;;;;;;513787;28;1384;-85
2022/04/17 20:20:53;;;;;;;4.07;3.30;;;;;;;;;;511867;28;1449;-86
2022/04/17 20:21:08;;;;;;;3.90;3.10;;;;;;;;;;512542;28;1898;-86
2022/04/17 20:21:25;;;;;;;4.40;3.00;;;;;;;;;;511365;28;1564;-85
2022/04/17 20:21:40;;;;;;;4.38;3.08;;;;;;;;;;510222;29;1784;-83
2022/04/17 20:22:00;;;;;;;4.50;3.03;;;;;;;;;;510402;29;1502;-87
2022/04/17 20:22:15;;;;;;;4.28;3.10;;;;;;;;;;515190;28;1369;-84
2022/04/17 20:22:31;;;;;;;5.23;3.13;;;;;;;;;;517653;28;1454;-84
2022/04/17 20:22:46;;;;;;;4.70;3.00;;;;;;;;;;513405;28;1381;-85
2022/04/17 20:23:01;;;;;;;4.30;2.95;;;;;;;;;;517455;28;1495;-86
2022/04/17 20:23:19;;;;;;;5.33;3.20;;;;;;;;;;518883;28;1701;-88
2022/04/17 20:23:35;;;;;;;4.40;3.10;;;;;;;;;;517047;28;1561;-87
2022/04/17 20:23:50;;;;;;;3.67;3.10;;;;;;;;;;516856;28;1409;-84
2022/04/17 20:24:06;;;;;;;4.65;3.33;;;;;;;;;;517627;28;1429;-86
2022/04/17 20:24:29;;;;;;;5.20;3.10;;;;;;;;;;517467;28;1416;-87
2022/04/17 20:24:45;;;;;;;3.90;3.10;;;;;;;;;;518599;28;1472;-86
2022/04/17 20:25:02;;;;;;;3.87;3.20;;;;;;;;;;516288;28;1578;-84
2022/04/17 20:25:18;;;;;;;4.43;3.15;;;;;;;;;;515909;28;1715;-85
2022/04/17 20:25:34;;;;;;;5.40;2.95;;;;;;;;;;517691;28;1359;-84
2022/04/17 20:25:52;;;;;;;5.37;2.80;;;;;;;;;;517728;28;1448;-85
2022/04/17 20:26:08;;;;;;;4.65;2.72;;;;;;;;;;516743;28;1454;-87
2022/04/17 20:26:23;;;;;;;4.28;3.00;;;;;;;;;;515405;28;1492;-86
2022/04/17 20:26:40;;;;;;;4.07;3.00;;;;;;;;;;515239;28;1491;-87
2022/04/17 20:27:04;;;;;;;4.63;2.97;;;;;;;;;;513935;28;841;-85
2022/04/17 20:27:19;;;;;;;5.00;3.08;;;;;;;;;;512189;28;1367;-87
2022/04/17 20:27:35;;;;;;;5.40;3.23;;;;;;;;;;512001;28;1608;-86
2022/04/17 20:27:51;;;;;;;4.85;3.00;;;;;;;;;;509547;29;1638;-87
2022/04/17 20:28:07;;;;;;;3.85;2.65;;;;;;;;;;511462;29;1562;-84
2022/04/17 20:28:22;;;;;;;3.67;2.63;;;;;;;;;;511768;28;1512;-85
2022/04/17 20:28:38;;;;;;;3.63;2.77;;;;;;;;;;513305;28;1422;-87
2022/04/17 20:28:53;;;;;;;4.03;2.80;;;;;;;;;;511362;28;1635;-85
2022/04/17 20:29:09;;;;;;;4.43;2.70;;;;;;;;;;512221;28;1516;-84
2022/04/17 20:29:26;;;;;;;5.70;2.80;;;;;;;;;;512350;28;1399;-84
2022/04/17 20:29:41;;;;;;;5.82;2.92;;;;;;;;;;514200;28;1648;-88
2022/04/17 20:29:57;;;;;;;3.80;2.80;;;;;;;;;;513504;28;1571;-85
2022/04/17 20:30:12;;;;;;;3.50;2.87;;;;;;;;;;514106;28;1464;-84
2022/04/17 20:30:28;;;;;;;4.90;2.85;;;;;;;;;;514969;28;1581;-85
2022/04/17 20:30:44;;;;;;;5.57;2.80;;;;;;;;;;514347;28;1865;-86
2022/04/17 20:30:59;;;;;;;4.27;2.67;;;;;;;;;;513715;28;1569;-86
2022/04/17 20:31:14;;;;;;;4.00;2.70;;;;;;;;;;513783;28;1487;-85
2022/04/17 20:31:30;;;;;;;3.50;2.60;;;;;;;;;;514181;28;1456;-86
2022/04/17 20:31:45;;;;;;;4.00;2.58;;;;;;;;;;513291;28;1461;-85
2022/04/17 20:32:02;;;;;;;4.50;2.80;;;;;;;;;;512719;28;1580;-84
2022/04/17 20:32:17;;;;;;;4.07;2.90;;;;;;;;;;513921;28;1591;-84
2022/04/17 20:32:32;;;;;;;4.03;2.92;;;;;;;;;;514533;28;1464;-84
2022/04/17 20:32:48;;;;;;;4.17;3.00;;;;;;;;;;514545;28;2902;-85
2022/04/17 20:33:03;;;;;;;4.60;3.07;;;;;;;;;;515461;28;1768;-85
2022/04/17 20:33:19;;;;;;;4.65;3.30;;;;;;;;;;515585;28;1492;-85
2022/04/17 20:33:34;;;;;;;5.47;3.50;;;;;;;;;;515388;28;1408;-86
2022/04/17 20:33:49;;;;;;;5.50;3.42;;;;;;;;;;513782;28;1618;-85
2022/04/17 20:34:06;;;;;;;4.63;3.30;;;;;;;;;;513256;28;1504;-84
2022/04/17 20:34:22;;;;;;;4.68;3.25;;;;;;;;;;515161;28;1509;-87
2022/04/17 20:34:38;;;;;;;4.47;3.30;;;;;;;;;;515403;28;1436;-85
2022/04/17 20:34:53;;;;;;;4.22;3.13;;;;;;;;;;516229;28;1455;-85
2022/04/17 20:35:09;;;;;;;4.93;3.05;;;;;;;;;;515846;28;1400;-87
2022/04/17 20:35:25;;;;;;;5.68;3.00;;;;;;;;;;515978;28;1614;-84
2022/04/17 20:35:43;;;;;;;4.47;2.80;;;;;;;;;;515452;28;1399;-84
2022/04/17 20:35:59;;;;;;;3.20;2.60;;;;;;;;;;515158;28;1534;-85
2022/04/17 20:36:14;;;;;;;4.53;2.90;;;;;;;;;;514553;28;1444;-87
2022/04/17 20:36:29;;;;;;;4.70;3.00;;;;;;;;;;513473;28;1441;-85
2022/04/17 20:36:45;;;;;;;4.40;2.90;;;;;;;;;;511892;28;1795;-85
2022/04/17 20:37:01;;;;;;;4.70;2.78;;;;;;;;;;512480;28;1617;-85
2022/04/17 20:37:16;;;;;;;3.73;2.50;;;;;;;;;;508496;29;1626;-84
2022/04/17 20:37:32;;;;;;;3.55;2.60;;;;;;;;;;510561;29;1489;-85
2022/04/17 20:37:47;;;;;;;4.07;2.72;;;;;;;;;;507419;29;1630;-86
2022/04/17 20:38:03;;;;;;;3.60;2.80;;;;;;;;;;511460;28;1161;-86
2022/04/17 20:38:18;;;;;;;4.70;2.72;;;;;;;;;;509898;29;1741;-85
2022/04/17 20:38:34;;;;;;;5.20;2.77;;;;;;;;;;508520;29;1487;-88
2022/04/17 20:38:49;;;;;;;4.60;3.00;;;;;;;;;;510117;29;1638;-84
2022/04/17 20:39:04;;;;;;;4.30;2.88;;;;;;;;;;509280;29;1399;-85
2022/04/17 20:39:20;;;;;;;3.50;2.70;;;;;;;;;;510604;29;1541;-86
2022/04/17 20:39:36;;;;;;;4.55;2.70;;;;;;;;;;509848;29;1554;-84
2022/04/17 20:39:51;;;;;;;5.05;2.75;;;;;;;;;;509861;29;1419;-84
2022/04/17 20:40:12;;;;;;;4.00;2.60;;;;;;;;;;508518;29;1561;-86
2022/04/17 20:40:29;;;;;;;4.00;2.60;;;;;;;;;;510911;28;1506;-85
2022/04/17 20:40:46;;;;;;;4.07;2.70;;;;;;;;;;511131;28;1364;-86
2022/04/17 20:41:01;;;;;;;4.43;2.63;;;;;;;;;;512498;28;1469;-85
2022/04/17 20:41:17;;;;;;;5.00;2.60;;;;;;;;;;511922;28;2004;-85
2022/04/17 20:41:32;;;;;;;4.38;2.80;;;;;;;;;;511853;28;1399;-87
2022/04/17 20:41:48;;;;;;;5.30;2.70;;;;;;;;;;511674;28;1596;-87
2022/04/17 20:42:03;;;;;;;5.65;2.60;;;;;;;;;;511976;28;1641;-87
2022/04/17 20:42:19;;;;;;;4.80;2.70;;;;;;;;;;511334;28;1434;-86
2022/04/17 20:42:35;;;;;;;4.60;2.75;;;;;;;;;;510001;28;1439;-86
2022/04/17 20:42:50;;;;;;;4.18;2.55;;;;;;;;;;511893;28;1312;-86
2022/04/17 20:50:35;;;;;;;3.50;2.20;;;;;;;;;;513880;28;1467;-87
2022/04/17 20:50:50;;;;;;;4.05;2.20;;;;;;;;;;512978;28;1524;-85
2022/04/17 20:51:09;;;;;;;4.40;2.28;;;;;;;;;;512579;28;1378;-87
2022/04/17 20:51:26;;;;;;;3.65;2.10;;;;;;;;;;511205;29;1236;-84
2022/04/17 20:51:41;;;;;;;2.97;2.03;;;;;;;;;;511612;29;1604;-84
2022/04/17 20:51:57;;;;;;;2.83;2.10;;;;;;;;;;513235;28;1469;-84
2022/04/17 20:52:12;;;;;;;3.13;2.20;;;;;;;;;;512141;28;849;-86
2022/04/17 20:52:27;;;;;;;3.33;2.30;;;;;;;;;;513581;28;1544;-84
2022/04/17 20:52:43;;;;;;;2.80;2.10;;;;;;;;;;514203;28;1403;-86
2022/04/17 20:52:59;;;;;;;3.13;2.00;;;;;;;;;;513395;28;1445;-87
2022/04/17 20:53:18;;;;;;;3.88;2.17;;;;;;;;;;514528;28;1604;-86
2022/04/17 20:53:34;;;;;;;4.15;2.10;;;;;;;;;;516349;28;1541;-87
2022/04/17 20:53:49;;;;;;;3.00;1.95;;;;;;;;;;515768;28;1544;-86
2022/04/17 20:54:04;;;;;;;3.03;2.00;;;;;;;;;;513267;28;1405;-86
2022/04/17 20:54:20;;;;;;;4.05;2.40;;;;;;;;;;514732;28;1444;-84
2022/04/17 20:54:35;;;;;;;3.63;2.27;;;;;;;;;;516624;28;1384;-85
2022/04/17 20:54:51;;;;;;;3.38;2.20;;;;;;;;;;513078;28;1390;-87
2022/04/17 20:55:08;;;;;;;3.63;2.30;;;;;;;;;;512742;28;1653;-87
2022/04/17 20:55:23;;;;;;;3.80;2.30;;;;;;;;;;511587;28;1485;-87
2022/04/17 20:55:39;;;;;;;3.53;2.20;;;;;;;;;;511374;28;1367;-86
2022/04/17 20:55:55;;;;;;;3.30;2.10;;;;;;;;;;511836;28;1495;-84
2022/04/17 20:56:11;;;;;;;3.23;2.20;;;;;;;;;;514004;28;1551;-87
2022/04/17 20:56:26;;;;;;;4.05;2.25;;;;;;;;;;513292;28;1849;-86
2022/04/17 20:56:43;;;;;;;4.10;2.30;;;;;;;;;;513785;28;1520;-86
2022/04/17 20:56:59;;;;;;;3.58;2.45;;;;;;;;;;515610;28;1436;-86
2022/04/17 20:57:14;;;;;;;3.20;2.25;;;;;;;;;;515461;28;1614;-86
2022/04/17 20:57:29;;;;;;;2.70;2.20;;;;;;;;;;516313;28;1396;-86
2022/04/17 20:57:45;;;;;;;3.03;2.20;;;;;;;;;;514658;28;1491;-86
2022/04/17 20:58:01;;;;;;;3.20;2.15;;;;;;;;;;515217;28;1460;-86
2022/04/17 20:58:16;;;;;;;2.92;2.22;;;;;;;;;;514616;28;1586;-88
2022/04/17 20:58:31;;;;;;;3.40;2.20;;;;;;;;;;510852;28;1470;-86
2022/04/17 20:58:47;;;;;;;4.80;2.33;;;;;;;;;;511384;28;1476;-87
2022/04/17 20:59:02;;;;;;;4.50;2.40;;;;;;;;;;511611;28;1545;-85
2022/04/17 20:59:17;;;;;;;3.07;2.30;;;;;;;;;;510896;28;1532;-87
2022/04/17 20:59:35;;;;;;;3.22;2.22;;;;;;;;;;511542;28;1513;-85
2022/04/17 20:59:50;;;;;;;3.10;2.20;;;;;;;;;;510783;28;1506;-87
2022/04/17 21:00:06;;;;;;;3.00;2.10;;;;;;;;;;509525;28;1509;-88
2022/04/17 21:00:22;;;;;;;3.00;2.00;;;;;;;;;;509954;29;1455;-84
2022/04/17 21:00:39;;;;;;;3.47;2.00;;;;;;;;;;509833;28;1597;-86
2022/04/17 21:00:54;;;;;;;3.70;2.28;;;;;;;;;;510384;28;1528;-86
2022/04/17 21:01:10;;;;;;;2.90;2.20;;;;;;;;;;513369;28;1923;-86
2022/04/17 21:01:26;;;;;;;2.85;2.13;;;;;;;;;;513381;28;1505;-86
2022/04/17 21:01:42;;;;;;;2.90;2.25;;;;;;;;;;510608;28;1707;-88
2022/04/17 21:02:00;;;;;;;3.22;2.40;;;;;;;;;;509072;29;1521;-88
2022/04/17 21:02:15;;;;;;;3.25;2.40;;;;;;;;;;510028;29;1435;-87
2022/04/17 21:02:31;;;;;;;2.57;2.10;;;;;;;;;;510299;28;1976;-89
2022/04/17 21:02:46;;;;;;;2.50;2.10;;;;;;;;;;512287;28;1462;-87
2022/04/17 21:03:17;;;;;;;2.80;2.20;;;;;;;;;;513658;28;1855;-86
2022/04/17 21:03:34;;;;;;;3.58;2.40;;;;;;;;;;513205;28;1444;-85
2022/04/17 21:03:49;;;;;;;4.30;2.35;;;;;;;;;;515458;28;1561;-86
2022/04/17 21:04:05;;;;;;;4.53;2.38;;;;;;;;;;514676;28;1537;-87
2022/04/17 21:04:21;;;;;;;4.23;2.70;;;;;;;;;;515201;28;1570;-85
2022/04/17 21:04:36;;;;;;;4.15;2.60;;;;;;;;;;515614;28;1632;-85
2022/04/17 21:04:52;;;;;;;4.22;2.40;;;;;;;;;;515532;28;1582;-85
2022/04/17 21:05:07;;;;;;;5.20;2.53;;;;;;;;;;515880;28;1463;-87
2022/04/17 21:05:24;;;;;;;4.85;2.50;;;;;;;;;;515388;28;1444;-89
2022/04/17 21:05:39;;;;;;;3.72;2.50;;;;;;;;;;513340;28;1515;-86
2022/04/17 21:05:55;;;;;;;3.80;2.60;;;;;;;;;;511700;28;1613;-86
2022/04/17 21:06:10;;;;;;;3.90;2.70;;;;;;;;;;512963;28;1414;-87
2022/04/17 21:06:28;;;;;;;4.32;2.70;;;;;;;;;;513125;28;1472;-85
2022/04/17 21:06:43;;;;;;;4.68;2.70;;;;;;;;;;512799;28;1616;-85
2022/04/17 21:06:59;;;;;;;4.30;2.72;;;;;;;;;;513405;28;1545;-86
2022/04/17 21:07:14;;;;;;;4.40;2.70;;;;;;;;;;512910;28;1534;-84
2022/04/17 21:07:31;;;;;;;3.87;2.60;;;;;;;;;;513220;28;1934;-85
2022/04/17 21:07:47;;;;;;;4.00;2.60;;;;;;;;;;511787;28;1434;-86
2022/04/17 21:08:03;;;;;;;4.30;2.57;;;;;;;;;;512966;28;1494;-86
2022/04/17 21:08:18;;;;;;;4.20;2.40;;;;;;;;;;513503;28;1425;-85
2022/04/17 21:08:34;;;;;;;3.63;2.40;;;;;;;;;;513288;28;1740;-87
2022/04/17 21:08:49;;;;;;;3.10;2.50;;;;;;;;;;513706;28;1640;-87
2022/04/17 21:09:07;;;;;;;4.20;2.60;;;;;;;;;;513036;28;1573;-86
2022/04/17 21:09:22;;;;;;;4.35;2.60;;;;;;;;;;514818;28;1602;-85
2022/04/17 21:09:38;;;;;;;3.95;2.60;;;;;;;;;;513392;28;1491;-86
2022/04/17 21:09:54;;;;;;;4.73;2.60;;;;;;;;;;510374;28;1544;-85
2022/04/17 21:10:10;;;;;;;4.25;2.60;;;;;;;;;;512164;28;1580;-85
2022/04/17 21:10:26;;;;;;;3.20;2.63;;;;;;;;;;511687;28;1451;-85
2022/04/17 21:10:43;;;;;;;3.23;2.50;;;;;;;;;;511349;28;1458;-86
2022/04/17 21:10:58;;;;;;;3.30;2.55;;;;;;;;;;510553;28;1422;-87
2022/04/17 21:11:13;;;;;;;4.13;2.60;;;;;;;;;;510820;28;1545;-87
2022/04/17 21:11:31;;;;;;;5.50;2.60;;;;;;;;;;509261;29;1571;-85
2022/04/17 21:11:46;;;;;;;5.25;2.67;;;;;;;;;;509911;28;1527;-86
2022/04/17 21:12:02;;;;;;;4.85;2.70;;;;;;;;;;511921;28;1476;-85
2022/04/17 21:12:17;;;;;;;5.00;2.73;;;;;;;;;;511919;28;1437;-86
2022/04/17 21:12:33;;;;;;;5.30;2.78;;;;;;;;;;511861;28;1433;-87
2022/04/17 21:12:49;;;;;;;5.30;2.80;;;;;;;;;;511458;28;1678;-85
2022/04/17 21:13:06;;;;;;;5.00;2.80;;;;;;;;;;513945;28;1400;-86
2022/04/17 21:13:21;;;;;;;5.18;2.75;;;;;;;;;;511334;28;1625;-85
2022/04/17 21:13:37;;;;;;;5.33;2.83;;;;;;;;;;511493;28;1510;-86
2022/04/17 21:13:52;;;;;;;5.50;2.90;;;;;;;;;;509986;29;1415;-86
2022/04/17 21:14:08;;;;;;;4.57;2.72;;;;;;;;;;508559;29;1780;-85
2022/04/17 21:14:23;;;;;;;3.53;2.60;;;;;;;;;;509506;29;1363;-87
2022/04/17 21:14:38;;;;;;;4.18;2.85;;;;;;;;;;509757;29;1684;-85
2022/04/17 21:14:54;;;;;;;4.00;2.70;;;;;;;;;;510118;29;1504;-86
2022/04/17 21:15:10;;;;;;;3.73;2.70;;;;;;;;;;509769;29;1643;-87
2022/04/17 21:15:25;;;;;;;4.18;2.70;;;;;;;;;;511730;28;1585;-84
2022/04/17 21:15:41;;;;;;;4.05;2.47;;;;;;;;;;511447;28;1586;-86
2022/04/17 21:15:56;;;;;;;4.27;2.47;;;;;;;;;;513315;28;1476;-87